Main page
METAR-TAF:

Airports :

Bauru, São Paulo, Brazil

Bauru Airport

latitude: 22-19S, longitude: 049-04W, elevation: 590 m

Current weather observation

The report was made 32 minutes ago, at 02:00 UTC
Wind 16 kt from the East
Temperature 15°C
Humidity 88%
Pressure 1021 hPa
Visibility 10 km or more
no clouds below 1500 m and no cumulonimbus

METAR: SBBU 240200Z 10016KT CAVOK 15/13 Q1021

Time: 23:32 (02:32 UTC)

Forecast

The report was made 4 hours and 32 minutes ago, at 22:00 UTC
Forecast valid from 24 at 00 UTC to 24 at 12 UTC
Wind 8 kt from the East
Visibility 10 km or more
no clouds below 1500 m and no cumulonimbus

TAF: SBBU 232200Z 2400/2412 10008KT CAVOK TX20/2400Z TN11/2407Z RMK PER

METAR-TAF

Weather observations and forecasts of more than 4000 airports (METAR and TAF reports).

The available stations are represented by yellow and red dots on the map.

Hover mouse over dot to see the name of the station.

Then click to see weather observations and forecasts.

To change the map : click on the green buttons with a black cross to zoom in, on the green button with a dash to zoom out, or on the green arrows for adjacent maps.


METAR-TAF: